createdAt,value
2022-09-07T00:01:19.455Z,2.40
2022-09-07T00:03:47.900Z,2.30
2022-09-07T00:06:16.178Z,2.70
2022-09-07T00:08:44.597Z,2.50
2022-09-07T00:11:16.212Z,2.60
2022-09-07T00:13:47.013Z,2.60
2022-09-07T00:16:18.834Z,2.60
2022-09-07T00:18:48.092Z,2.30
2022-09-07T00:21:18.160Z,2.50
2022-09-07T00:23:49.292Z,2.30
2022-09-07T00:26:21.261Z,2.40
2022-09-07T00:28:50.409Z,2.50
2022-09-07T00:31:21.534Z,2.60
2022-09-07T00:33:51.454Z,2.30
2022-09-07T00:36:21.366Z,2.60
2022-09-07T00:41:19.667Z,2.30
2022-09-07T00:43:50.734Z,2.30
2022-09-07T00:46:22.722Z,2.30
2022-09-07T00:49:08.357Z,2.20
2022-09-07T00:52:00.084Z,2.40
2022-09-07T00:54:36.662Z,2.50
2022-09-07T00:57:05.974Z,2.20
2022-09-07T00:59:45.216Z,2.40
2022-09-07T01:02:15.940Z,2.50
2022-09-07T01:04:48.578Z,2.40
2022-09-07T01:07:17.508Z,2.10
2022-09-07T01:09:47.472Z,2.50
2022-09-07T01:14:47.522Z,2.30
2022-09-07T01:17:26.274Z,2.20
2022-09-07T01:20:20.978Z,2.20
2022-09-07T01:23:30.587Z,2.10
2022-09-07T01:26:05.071Z,2.40
2022-09-07T01:28:35.611Z,2.40
2022-09-07T01:31:13.927Z,2.30
2022-09-07T01:33:42.265Z,2.40
2022-09-07T01:36:34.131Z,2.10
2022-09-07T01:39:05.040Z,2.20
2022-09-07T01:42:07.276Z,2.40
2022-09-07T01:44:55.448Z,2.50
2022-09-07T01:47:27.513Z,2.20
2022-09-07T01:50:05.362Z,2.20
2022-09-07T01:52:43.594Z,2.40
2022-09-07T01:55:50.122Z,2.70
2022-09-07T01:58:26.933Z,2.30
2022-09-07T02:01:02.053Z,2.40
2022-09-07T02:03:42.589Z,2.70
2022-09-07T02:06:27.383Z,2.40
2022-09-07T02:09:07.635Z,2.50
2022-09-07T02:11:39.758Z,2.50
2022-09-07T02:14:31.346Z,2.30
2022-09-07T02:17:11.229Z,2.30
2022-09-07T02:19:45.398Z,2.20
2022-09-07T02:22:20.441Z,2.20
2022-09-07T02:24:53.200Z,2.20
2022-09-07T02:27:50.384Z,2.30
2022-09-07T02:30:18.810Z,2.20
2022-09-07T02:32:47.119Z,2.30
2022-09-07T02:35:15.735Z,2.20
2022-09-07T02:37:45.721Z,2.20
2022-09-07T02:40:14.988Z,2.50
2022-09-07T02:42:47.575Z,2.40
2022-09-07T02:45:17.041Z,2.60
2022-09-07T02:48:15.004Z,2.40
2022-09-07T02:51:24.162Z,2.30
2022-09-07T02:54:14.169Z,1.90
2022-09-07T02:57:17.999Z,2.20
2022-09-07T03:00:07.561Z,2.40
2022-09-07T03:02:45.683Z,2.20
2022-09-07T03:05:42.865Z,2.00
2022-09-07T03:08:16.226Z,2.20
2022-09-07T03:10:45.297Z,2.30
2022-09-07T03:13:28.205Z,2.40
2022-09-07T03:15:57.732Z,2.20
2022-09-07T03:18:27.534Z,2.20
2022-09-07T03:23:25.015Z,2.00
2022-09-07T03:25:53.303Z,2.50
2022-09-07T03:28:21.580Z,2.10
2022-09-07T03:30:50.231Z,2.20
2022-09-07T03:33:18.531Z,2.50
2022-09-07T03:35:58.327Z,2.40
2022-09-07T03:41:02.444Z,2.10
2022-09-07T03:43:31.313Z,2.50
2022-09-07T03:46:05.930Z,2.30
2022-09-07T03:48:35.443Z,2.20
2022-09-07T03:51:06.734Z,2.10
2022-09-07T03:53:39.878Z,2.30
2022-09-07T03:56:11.269Z,2.40
2022-09-07T03:58:39.715Z,2.60
2022-09-07T04:01:11.582Z,2.30
2022-09-07T04:03:40.021Z,2.60
2022-09-07T04:06:08.749Z,2.60
2022-09-07T04:08:38.324Z,2.40
2022-09-07T04:13:36.842Z,2.50
2022-09-07T04:16:12.566Z,2.30
2022-09-07T04:18:41.753Z,2.50
2022-09-07T04:21:10.542Z,2.40
2022-09-07T04:23:43.821Z,2.40
2022-09-07T04:26:21.657Z,2.60
2022-09-07T04:28:51.117Z,2.30
2022-09-07T04:31:20.369Z,2.30
2022-09-07T04:33:49.997Z,2.60
2022-09-07T04:36:19.998Z,2.60
2022-09-07T04:38:57.977Z,2.30
2022-09-07T04:41:28.192Z,2.60
2022-09-07T04:43:59.033Z,2.40
2022-09-07T04:46:30.246Z,2.50
2022-09-07T04:49:00.840Z,2.60
2022-09-07T04:51:30.909Z,2.30
2022-09-07T04:54:02.030Z,2.70
2022-09-07T04:56:32.131Z,2.50
2022-09-07T04:59:02.212Z,2.60
2022-09-07T05:01:31.396Z,2.50
2022-09-07T05:04:01.447Z,2.60
2022-09-07T05:06:29.995Z,2.60
2022-09-07T05:08:58.965Z,2.70
2022-09-07T05:11:29.717Z,2.30
2022-09-07T05:14:00.005Z,2.70
2022-09-07T05:19:02.253Z,2.40
2022-09-07T05:21:33.940Z,2.20
2022-09-07T05:24:03.150Z,2.80
2022-09-07T05:26:34.135Z,2.20
2022-09-07T05:31:54.936Z,3.10
2022-09-07T05:34:31.576Z,4.50
2022-09-07T05:37:01.387Z,7.10
2022-09-07T05:41:59.434Z,12.60
2022-09-07T05:47:11.307Z,18.30
2022-09-07T05:49:39.725Z,18.40
2022-09-07T05:52:08.259Z,13.70
2022-09-07T05:54:38.345Z,8.70
2022-09-07T05:57:13.689Z,6.70
2022-09-07T05:59:42.142Z,4.50
2022-09-07T06:02:17.726Z,7.90
2022-09-07T06:04:46.127Z,12.10
2022-09-07T06:07:22.965Z,6.70
2022-09-07T06:12:41.701Z,3.80
2022-09-07T06:15:11.835Z,3.10
2022-09-07T06:17:40.444Z,3.00
2022-09-07T06:20:09.486Z,3.70
2022-09-07T06:22:38.368Z,2.90
2022-09-07T06:25:06.984Z,2.90
2022-09-07T06:27:35.423Z,2.50
2022-09-07T06:30:04.752Z,3.00
2022-09-07T06:32:44.635Z,2.50
2022-09-07T06:35:14.999Z,2.60
2022-09-07T06:40:12.409Z,2.80
2022-09-07T06:42:40.866Z,2.70
2022-09-07T06:45:11.631Z,2.40
2022-09-07T06:47:41.111Z,2.40
2022-09-07T06:50:10.303Z,2.60
2022-09-07T06:55:31.124Z,2.60
2022-09-07T06:57:59.370Z,2.80
2022-09-07T07:00:27.743Z,2.60
2022-09-07T07:02:56.289Z,2.80
2022-09-07T07:05:24.662Z,2.70
2022-09-07T07:07:53.016Z,2.70
2022-09-07T07:10:24.752Z,2.70
2022-09-07T07:12:57.825Z,2.30
2022-09-07T07:15:28.416Z,2.20
2022-09-07T07:18:02.556Z,2.30
2022-09-07T07:20:39.864Z,2.50
2022-09-07T07:23:08.793Z,2.50
2022-09-07T07:25:37.553Z,2.40
2022-09-07T07:30:56.440Z,2.10
2022-09-07T07:33:25.415Z,2.30
2022-09-07T07:35:53.692Z,2.40
2022-09-07T07:44:00.621Z,2.10
2022-09-07T07:46:30.484Z,2.20
2022-09-07T07:48:59.194Z,7.80
2022-09-07T07:51:27.605Z,13.10
2022-09-07T07:53:56.828Z,6.40
2022-09-07T07:56:25.370Z,3.10
2022-09-07T07:58:53.749Z,4.60
2022-09-07T08:01:22.140Z,3.00
2022-09-07T08:03:51.064Z,2.70
2022-09-07T08:06:21.853Z,2.70
2022-09-07T08:08:50.137Z,2.70
2022-09-07T08:11:20.908Z,2.70
2022-09-07T08:13:51.177Z,3.30
2022-09-07T08:16:19.811Z,3.00
2022-09-07T08:18:49.372Z,3.00
2022-09-07T08:21:17.799Z,2.50
2022-09-07T08:23:46.116Z,3.10
2022-09-07T08:26:14.371Z,2.40
2022-09-07T08:28:45.641Z,2.40
2022-09-07T08:31:16.383Z,2.40
2022-09-07T08:33:45.744Z,2.20
2022-09-07T08:36:19.391Z,2.30
2022-09-07T08:38:48.434Z,2.20
2022-09-07T08:41:46.651Z,2.40
2022-09-07T08:44:29.997Z,2.40
2022-09-07T08:47:07.078Z,8.50
2022-09-07T08:49:47.386Z,4.20
2022-09-07T08:52:27.840Z,3.50
2022-09-07T08:55:28.152Z,2.70
2022-09-07T08:58:02.192Z,2.60
2022-09-07T09:00:31.679Z,8.10
2022-09-07T09:05:53.802Z,3.20
2022-09-07T09:08:48.174Z,5.20
2022-09-07T09:11:27.564Z,3.10
2022-09-07T09:13:55.820Z,2.80
2022-09-07T09:16:27.063Z,1.90
2022-09-07T09:18:55.260Z,1.70
2022-09-07T09:21:23.683Z,2.00
2022-09-07T09:23:55.407Z,1.90
2022-09-07T09:26:26.165Z,2.00
2022-09-07T09:28:55.366Z,1.70
2022-09-07T09:31:36.277Z,2.20
2022-09-07T09:34:15.161Z,2.00
2022-09-07T09:36:56.419Z,2.10
2022-09-07T09:39:31.093Z,2.10
2022-09-07T09:42:15.822Z,2.20
2022-09-07T09:44:45.707Z,2.00
2022-09-07T09:47:40.749Z,1.90
2022-09-07T09:53:49.225Z,2.00
2022-09-07T09:56:18.329Z,2.30
2022-09-07T10:01:36.866Z,2.20
2022-09-07T10:04:24.775Z,2.40
2022-09-07T10:07:22.760Z,2.30
2022-09-07T10:09:53.263Z,1.80
2022-09-07T10:12:34.778Z,2.10
2022-09-07T10:15:07.023Z,1.90
2022-09-07T10:17:43.861Z,2.00
2022-09-07T10:20:15.996Z,2.10
2022-09-07T10:22:51.304Z,1.90
2022-09-07T10:25:38.101Z,2.10
2022-09-07T10:28:13.024Z,1.90
2022-09-07T10:31:02.572Z,3.20
2022-09-07T10:37:22.150Z,2.00
2022-09-07T10:40:10.076Z,2.00
2022-09-07T10:45:45.786Z,1.90
2022-09-07T10:48:20.872Z,2.10
2022-09-07T10:50:57.400Z,2.30
2022-09-07T10:53:42.066Z,2.20
2022-09-07T10:56:15.626Z,2.10
2022-09-07T10:59:03.059Z,2.10
2022-09-07T11:01:40.878Z,2.40
2022-09-07T11:04:37.228Z,2.70
2022-09-07T11:07:15.901Z,2.40
2022-09-07T11:10:30.241Z,2.20
2022-09-07T11:13:04.907Z,2.20
2022-09-07T11:15:43.174Z,2.30
2022-09-07T11:18:41.349Z,2.60
2022-09-07T11:21:56.271Z,2.10
2022-09-07T11:24:19.674Z,2.30
2022-09-07T11:27:14.500Z,2.10
2022-09-07T11:29:55.486Z,3.00
2022-09-07T11:32:31.557Z,2.20
2022-09-07T11:35:25.253Z,2.50
2022-09-07T11:37:59.684Z,2.10
2022-09-07T11:40:30.864Z,2.10
2022-09-07T11:43:22.741Z,2.00
2022-09-07T11:46:21.466Z,2.00
2022-09-07T11:48:55.001Z,1.80
2022-09-07T11:51:53.731Z,2.10
2022-09-07T11:54:42.480Z,1.90
2022-09-07T11:57:46.394Z,1.90
2022-09-07T12:00:21.893Z,2.00
2022-09-07T12:03:04.582Z,2.10
2022-09-07T12:05:44.819Z,2.00
2022-09-07T12:08:30.009Z,1.90
2022-09-07T12:11:10.328Z,2.10
2022-09-07T12:13:57.157Z,2.40
2022-09-07T12:17:02.243Z,2.30
2022-09-07T12:19:30.832Z,2.20
2022-09-07T12:22:00.051Z,2.20
2022-09-07T12:24:43.425Z,2.30
2022-09-07T12:27:20.628Z,1.90
2022-09-07T12:30:09.862Z,2.00
2022-09-07T12:32:55.826Z,1.90
2022-09-07T12:35:31.728Z,1.80
2022-09-07T12:38:01.735Z,2.70
2022-09-07T12:40:30.002Z,1.80
2022-09-07T12:43:13.295Z,2.10
2022-09-07T12:45:42.216Z,2.20
2022-09-07T12:48:16.263Z,2.10
2022-09-07T12:51:12.360Z,2.10
2022-09-07T12:54:08.699Z,2.40
2022-09-07T12:56:43.119Z,3.20
2022-09-07T12:59:32.852Z,2.80
2022-09-07T13:02:27.919Z,2.80
2022-09-07T13:05:34.880Z,2.40
2022-09-07T13:08:40.623Z,2.00
2022-09-07T13:11:38.341Z,3.00
2022-09-07T13:14:17.362Z,2.60
2022-09-07T13:19:52.067Z,3.10
2022-09-07T13:22:32.392Z,4.20
2022-09-07T13:25:27.308Z,3.40
2022-09-07T13:28:14.224Z,2.90
2022-09-07T13:31:01.194Z,4.50
2022-09-07T13:33:29.782Z,2.30
2022-09-07T13:36:40.381Z,8.50
2022-09-07T13:39:15.355Z,3.00
2022-09-07T13:41:50.541Z,3.80
2022-09-07T13:44:39.237Z,2.40
2022-09-07T13:47:35.002Z,2.60
2022-09-07T13:50:12.258Z,2.20
2022-09-07T13:53:12.396Z,2.50
2022-09-07T13:56:15.820Z,2.50
2022-09-07T13:58:49.908Z,2.90
2022-09-07T14:01:29.140Z,4.00
2022-09-07T14:06:38.085Z,6.80
2022-09-07T14:09:13.632Z,3.10
2022-09-07T14:11:46.423Z,3.00
2022-09-07T14:14:33.353Z,5.30
2022-09-07T14:17:01.931Z,2.30
2022-09-07T14:19:49.526Z,3.50
2022-09-07T14:22:26.250Z,2.90
2022-09-07T14:24:59.735Z,2.80
2022-09-07T14:27:42.443Z,2.20
2022-09-07T14:30:23.436Z,2.40
2022-09-07T14:33:20.434Z,2.20
2022-09-07T14:35:49.986Z,4.60
2022-09-07T14:41:15.698Z,2.50
2022-09-07T14:43:55.507Z,2.80
2022-09-07T14:46:26.136Z,1.90
2022-09-07T14:48:59.880Z,2.40
2022-09-07T14:51:36.174Z,2.40
2022-09-07T14:54:07.188Z,2.30
2022-09-07T14:56:41.094Z,2.20
2022-09-07T14:59:34.960Z,2.40
2022-09-07T15:02:18.589Z,2.60
2022-09-07T15:05:08.212Z,2.40
2022-09-07T15:07:47.168Z,2.30
2022-09-07T15:10:16.658Z,2.80
2022-09-07T15:12:44.989Z,2.20
2022-09-07T15:15:21.860Z,1.80
2022-09-07T15:17:51.828Z,2.20
2022-09-07T15:20:37.873Z,2.20
2022-09-07T15:23:17.110Z,5.40
2022-09-07T15:25:51.871Z,2.70
2022-09-07T15:34:02.375Z,2.30
2022-09-07T15:36:31.948Z,7.90
2022-09-07T15:39:01.099Z,3.80
2022-09-07T15:41:30.311Z,3.00
2022-09-07T15:43:59.081Z,2.40
2022-09-07T15:46:27.622Z,3.20
2022-09-07T15:48:56.394Z,2.40
2022-09-07T15:54:14.844Z,3.70
2022-09-07T15:57:47.661Z,3.60
2022-09-07T15:59:32.457Z,3.30
2022-09-07T16:02:00.995Z,2.30
2022-09-07T16:04:29.662Z,4.10
2022-09-07T16:07:01.997Z,8.00
2022-09-07T16:09:30.320Z,8.60
2022-09-07T16:12:59.931Z,9.70
2022-09-07T16:14:47.344Z,19.10
2022-09-07T16:20:04.678Z,8.40
2022-09-07T16:25:22.873Z,3.40
2022-09-07T16:27:51.173Z,4.50
2022-09-07T16:30:19.385Z,5.00
2022-09-07T16:32:48.290Z,6.70
2022-09-07T16:35:17.509Z,3.10
2022-09-07T16:40:34.234Z,2.90
2022-09-07T16:43:02.449Z,2.80
2022-09-07T16:48:20.229Z,8.40
2022-09-07T16:51:00.448Z,4.50
2022-09-07T16:53:34.662Z,5.40
2022-09-07T16:56:05.296Z,5.50
2022-09-07T16:58:36.421Z,4.50
2022-09-07T17:01:06.945Z,3.10
2022-09-07T17:03:36.876Z,4.00
2022-09-07T17:06:07.803Z,3.80
2022-09-07T17:08:37.832Z,7.00
2022-09-07T17:11:15.949Z,3.60
2022-09-07T17:13:45.407Z,6.00
2022-09-07T17:21:33.982Z,4.50
2022-09-07T17:24:04.207Z,9.20
2022-09-07T17:26:33.203Z,4.10
2022-09-07T17:29:01.567Z,4.10
2022-09-07T17:34:21.609Z,3.40
2022-09-07T17:36:51.338Z,3.20
2022-09-07T17:39:20.104Z,4.00
2022-09-07T17:41:52.695Z,4.00
2022-09-07T17:44:23.461Z,5.00
2022-09-07T17:46:52.049Z,5.40
2022-09-07T17:49:20.346Z,3.70
2022-09-07T17:51:48.808Z,3.90
2022-09-07T17:54:17.859Z,3.20
2022-09-07T17:56:46.507Z,4.20
2022-09-07T18:02:03.557Z,3.90
2022-09-07T18:04:31.952Z,3.90
2022-09-07T18:07:00.249Z,3.90
2022-09-07T18:09:28.801Z,4.10
2022-09-07T18:11:57.277Z,4.10
2022-09-07T18:14:25.641Z,3.20
2022-09-07T18:16:54.153Z,5.20
2022-09-07T18:19:24.909Z,3.80
2022-09-07T18:21:58.467Z,2.70
2022-09-07T18:24:27.975Z,2.40
2022-09-07T18:27:07.848Z,2.70
2022-09-07T18:29:36.488Z,2.70
2022-09-07T18:32:09.364Z,3.10
2022-09-07T18:34:41.157Z,5.00
2022-09-07T18:37:12.312Z,2.90
2022-09-07T18:39:41.336Z,2.90
2022-09-07T18:42:10.275Z,8.60
2022-09-07T18:47:29.222Z,5.70
2022-09-07T18:49:58.692Z,3.00
2022-09-07T18:55:16.466Z,3.20
2022-09-07T18:57:45.170Z,2.50
2022-09-07T19:00:14.601Z,2.30
2022-09-07T19:02:42.844Z,2.50
2022-09-07T19:08:00.031Z,2.50
2022-09-07T19:10:28.303Z,2.70
2022-09-07T19:12:56.872Z,2.60
2022-09-07T19:15:25.670Z,2.90
2022-09-07T19:17:54.102Z,2.70
2022-09-07T19:20:22.455Z,3.00
2022-09-07T19:22:50.950Z,2.70
2022-09-07T19:25:19.584Z,2.90
2022-09-07T19:27:48.051Z,2.30
2022-09-07T19:30:18.043Z,2.20
2022-09-07T19:32:46.434Z,2.60
2022-09-07T19:35:17.942Z,2.10
2022-09-07T19:37:48.447Z,1.90
2022-09-07T19:40:19.267Z,1.90
2022-09-07T19:42:48.197Z,2.10
2022-09-07T19:45:16.768Z,1.90
2022-09-07T19:47:45.078Z,1.90
2022-09-07T19:50:13.414Z,1.90
2022-09-07T19:52:41.971Z,2.20
2022-09-07T19:55:10.361Z,2.10
2022-09-07T19:57:38.729Z,1.90
2022-09-07T20:00:07.914Z,2.40
2022-09-07T20:02:39.090Z,2.20
2022-09-07T20:05:10.150Z,2.00
2022-09-07T20:07:52.486Z,1.90
2022-09-07T20:10:20.883Z,2.10
2022-09-07T20:12:49.349Z,1.80
2022-09-07T20:15:17.677Z,2.00
2022-09-07T20:17:47.520Z,1.90
2022-09-07T20:20:18.353Z,2.10
2022-09-07T20:22:47.299Z,2.00
2022-09-07T20:25:15.733Z,2.10
2022-09-07T20:27:44.697Z,2.40
2022-09-07T20:30:13.440Z,1.90
2022-09-07T20:32:44.406Z,2.20
2022-09-07T20:35:14.092Z,2.20
2022-09-07T20:37:44.149Z,1.80
2022-09-07T20:40:12.534Z,2.30
2022-09-07T20:42:40.941Z,2.20
2022-09-07T20:45:09.769Z,2.20
2022-09-07T20:47:38.193Z,2.00
2022-09-07T20:50:06.862Z,2.50
2022-09-07T20:52:35.157Z,2.10
2022-09-07T20:55:03.655Z,1.90
2022-09-07T20:57:31.999Z,2.30
2022-09-07T21:00:00.271Z,1.80
2022-09-07T21:02:28.556Z,2.00
2022-09-07T21:04:56.934Z,2.30
2022-09-07T21:07:25.204Z,1.90
2022-09-07T21:09:53.435Z,2.00
2022-09-07T21:12:24.519Z,2.40
2022-09-07T21:14:52.856Z,1.90
2022-09-07T21:17:21.285Z,2.10
2022-09-07T21:19:49.591Z,1.90
2022-09-07T21:22:17.969Z,2.00
2022-09-07T21:24:46.274Z,2.10
2022-09-07T21:27:14.579Z,1.90
2022-09-07T21:29:42.900Z,1.70
2022-09-07T21:32:11.104Z,2.00
2022-09-07T21:34:39.409Z,2.00
2022-09-07T21:37:07.699Z,1.80
2022-09-07T21:39:36.010Z,1.80
2022-09-07T21:42:04.735Z,1.80
2022-09-07T21:44:33.043Z,2.30
2022-09-07T21:47:01.312Z,2.10
2022-09-07T21:49:29.696Z,1.80
2022-09-07T21:51:57.982Z,2.20
2022-09-07T21:54:26.249Z,2.50
2022-09-07T21:56:54.927Z,1.90
2022-09-07T21:59:23.269Z,2.30
2022-09-07T22:01:51.537Z,2.00
2022-09-07T22:04:19.916Z,1.90
2022-09-07T22:06:48.306Z,2.10
2022-09-07T22:09:16.841Z,2.20
2022-09-07T22:11:46.141Z,1.80
2022-09-07T22:14:15.954Z,2.00
2022-09-07T22:16:44.498Z,2.20
2022-09-07T22:19:13.258Z,2.30
2022-09-07T22:21:41.589Z,2.20
2022-09-07T22:24:11.868Z,2.00
2022-09-07T22:26:40.119Z,2.40
2022-09-07T22:29:11.842Z,2.00
2022-09-07T22:31:41.543Z,2.30
2022-09-07T22:34:10.707Z,2.60
2022-09-07T22:36:42.256Z,2.00
2022-09-07T22:39:17.088Z,2.30
2022-09-07T22:41:47.437Z,2.20
2022-09-07T22:44:18.504Z,2.10
2022-09-07T22:46:48.356Z,2.20
2022-09-07T22:49:17.731Z,2.30
2022-09-07T22:51:46.423Z,2.30
2022-09-07T22:54:14.865Z,2.80
2022-09-07T22:56:43.395Z,2.20
2022-09-07T22:59:12.909Z,2.10
2022-09-07T23:01:41.909Z,2.50
2022-09-07T23:04:11.340Z,2.40
2022-09-07T23:06:42.068Z,2.20
2022-09-07T23:09:14.086Z,2.50
2022-09-07T23:11:43.404Z,2.40
2022-09-07T23:14:15.352Z,2.90
2022-09-07T23:16:44.684Z,2.70
2022-09-07T23:19:14.276Z,2.60
2022-09-07T23:21:43.443Z,2.70
2022-09-07T23:24:13.640Z,2.50
2022-09-07T23:26:42.695Z,2.70
2022-09-07T23:29:12.978Z,2.80
2022-09-07T23:31:42.188Z,2.40
2022-09-07T23:34:10.474Z,2.70
2022-09-07T23:36:38.977Z,3.30
2022-09-07T23:39:07.649Z,2.60
2022-09-07T23:41:35.805Z,2.60
2022-09-07T23:44:04.094Z,3.00
2022-09-07T23:46:32.407Z,2.60
2022-09-07T23:49:00.678Z,2.50
2022-09-07T23:51:28.887Z,2.70
2022-09-07T23:53:57.739Z,2.70
2022-09-07T23:56:26.398Z,2.30
2022-09-07T23:58:54.657Z,2.50
